Check out our new PWSWeather beta!
PWSweather.com
Personal Weather Stations
Station Observations
3183437707
Independence And 15th St., Plano, TX 75075

Independence And 15th St.Plano, TX 75075

Lat: 33.0164642, Lon: -96.7458725

Elevation: 730

Station Type: Davis Vantage Vue

http://www.planobestweather.com

Latest ConditionsUpdated 4:50:06 AM CST Wednesday, Feb 26, 2020
Currently Today's Max Today's Min Today's Average
Temperature 39.6°F4.2°C 42.1°F5.6°C 39.5°F4.2°C 40.1°F4.5°C
Dew Point 33.0°F0.6°C 34.1°F1.2°C 30.2°F-1.0°C 32.5°F0.3°C
Winds 14.0 mph NW22.5 kmh NW 21.0 mph -33.8 kmh - - 8.8 mph 14.2 kmh
Wind Gusts 18.0 mph29.0 kmh 23.0 mph37.0 kmh - -
Humidity 77% 80% 63% 74%
Pressure 30.29 in1025.7 mb 30.29 in1025.7 mb 30.23 in1023.7 mb -
Hour Temp Dew Point Humidity Winds Wind Gusts Pressure Precip Precip Rate Daily Precip Total
04:50 AM 39.6°F4.2°C 33.0°F0.6°C 77% 14.0 mph NW22.5 kmh NW 18.0 mph29.0 kmh 30.29 in1025.7 mb 0.00 in0.0 mm 0.00 in0.0 mm 0.00 in0.0 mm
04:45 AM 39.7°F4.3°C 33.4°F0.8°C 78% 11.0 mph NNW17.7 kmh NNW 17.0 mph27.4 kmh 30.28 in1025.4 mb 0.00 in0.0 mm 0.00 in0.0 mm 0.00 in0.0 mm
04:40 AM 39.5°F4.2°C 33.2°F0.7°C 78% 5.0 mph NW8.0 kmh NW 12.0 mph19.3 kmh 30.28 in1025.4 mb 0.00 in0.0 mm 0.00 in0.0 mm 0.00 in0.0 mm
04:35 AM 39.6°F4.2°C 33.3°F0.7°C 78% 10.0 mph NW16.1 kmh NW 20.0 mph32.2 kmh 30.28 in1025.4 mb 0.00 in0.0 mm 0.00 in0.0 mm 0.00 in0.0 mm
04:30 AM 39.6°F4.2°C 33.3°F0.7°C 78% 7.0 mph NW11.3 kmh NW 20.0 mph32.2 kmh 30.28 in1025.4 mb 0.00 in0.0 mm 0.00 in0.0 mm 0.00 in0.0 mm
04:25 AM 39.5°F4.2°C 33.2°F0.7°C 78% 12.0 mph NW19.3 kmh NW 17.0 mph27.4 kmh 30.27 in1025.1 mb 0.00 in0.0 mm 0.00 in0.0 mm 0.00 in0.0 mm
04:20 AM 39.5°F4.2°C 33.2°F0.7°C 78% 17.0 mph WNW27.4 kmh WNW 23.0 mph37.0 kmh 30.27 in1025.1 mb 0.00 in0.0 mm 0.00 in0.0 mm 0.00 in0.0 mm
04:15 AM 39.6°F4.2°C 33.3°F0.7°C 78% 7.0 mph WNW11.3 kmh WNW 14.0 mph22.5 kmh 30.27 in1025.1 mb 0.00 in0.0 mm 0.00 in0.0 mm 0.00 in0.0 mm
04:10 AM 39.5°F4.2°C 33.5°F0.8°C 79% 6.0 mph NW9.7 kmh NW 12.0 mph19.3 kmh 30.26 in1024.7 mb 0.00 in0.0 mm 0.00 in0.0 mm 0.00 in0.0 mm
04:05 AM 39.5°F4.2°C 33.5°F0.8°C 79% 10.0 mph NW16.1 kmh NW 12.0 mph19.3 kmh 30.26 in1024.7 mb 0.00 in0.0 mm 0.00 in0.0 mm 0.00 in0.0 mm
04:00 AM 39.5°F4.2°C 33.5°F0.8°C 79% 11.0 mph NW17.7 kmh NW 11.0 mph17.7 kmh 30.26 in1024.7 mb 0.00 in0.0 mm 0.00 in0.0 mm 0.00 in0.0 mm
03:55 AM 39.5°F4.2°C 33.9°F1.1°C 80% 6.0 mph NW9.7 kmh NW 12.0 mph19.3 kmh 30.26 in1024.7 mb 0.00 in0.0 mm 0.00 in0.0 mm 0.00 in0.0 mm
03:50 AM 39.5°F4.2°C 33.9°F1.1°C 80% 13.0 mph NNW20.9 kmh NNW 16.0 mph25.7 kmh 30.25 in1024.4 mb 0.00 in0.0 mm 0.00 in0.0 mm 0.00 in0.0 mm
03:45 AM 39.6°F4.2°C 34.0°F1.1°C 80% 11.0 mph WNW17.7 kmh WNW 15.0 mph24.1 kmh 30.25 in1024.4 mb 0.00 in0.0 mm 0.00 in0.0 mm 0.00 in0.0 mm
03:40 AM 39.7°F4.3°C 34.1°F1.2°C 80% 9.0 mph NW14.5 kmh NW 13.0 mph20.9 kmh 30.25 in1024.4 mb 0.00 in0.0 mm 0.00 in0.0 mm 0.00 in0.0 mm
03:35 AM 39.7°F4.3°C 33.7°F0.9°C 79% 9.0 mph NW14.5 kmh NW 13.0 mph20.9 kmh 30.25 in1024.4 mb 0.00 in0.0 mm 0.00 in0.0 mm 0.00 in0.0 mm
03:30 AM 39.8°F4.3°C 34.1°F1.2°C 80% 11.0 mph NW17.7 kmh NW 15.0 mph24.1 kmh 30.25 in1024.4 mb 0.00 in0.0 mm 0.00 in0.0 mm 0.00 in0.0 mm
03:25 AM 39.7°F4.3°C 34.1°F1.2°C 80% 9.0 mph NW14.5 kmh NW 9.0 mph14.5 kmh 30.25 in1024.4 mb 0.00 in0.0 mm 0.00 in0.0 mm 0.00 in0.0 mm
03:20 AM 39.6°F4.2°C 34.0°F1.1°C 80% 14.0 mph NW22.5 kmh NW 22.0 mph35.4 kmh 30.24 in1024.0 mb 0.00 in0.0 mm 0.00 in0.0 mm 0.00 in0.0 mm
03:15 AM 39.7°F4.3°C 34.1°F1.2°C 80% 3.0 mph NW4.8 kmh NW 14.0 mph22.5 kmh 30.24 in1024.0 mb 0.00 in0.0 mm 0.00 in0.0 mm 0.00 in0.0 mm
03:10 AM 39.5°F4.2°C 33.9°F1.1°C 80% 10.0 mph WSW16.1 kmh WSW 10.0 mph16.1 kmh 30.24 in1024.0 mb 0.00 in0.0 mm 0.00 in0.0 mm 0.00 in0.0 mm
03:05 AM 39.5°F4.2°C 33.9°F1.1°C 80% 8.0 mph WSW12.9 kmh WSW 12.0 mph19.3 kmh 30.24 in1024.0 mb 0.00 in0.0 mm 0.00 in0.0 mm 0.00 in0.0 mm
03:00 AM 39.6°F4.2°C 33.6°F0.9°C 79% 5.0 mph NW8.0 kmh NW 17.0 mph27.4 kmh 30.24 in1024.0 mb 0.00 in0.0 mm 0.00 in0.0 mm 0.00 in0.0 mm
02:55 AM 39.7°F4.3°C 33.7°F0.9°C 79% 8.0 mph W12.9 kmh W 17.0 mph27.4 kmh 30.24 in1024.0 mb 0.00 in0.0 mm 0.00 in0.0 mm 0.00 in0.0 mm
02:50 AM 39.8°F4.3°C 33.5°F0.8°C 78% 7.0 mph NW11.3 kmh NW 13.0 mph20.9 kmh 30.24 in1024.0 mb 0.00 in0.0 mm 0.00 in0.0 mm 0.00 in0.0 mm
02:45 AM 40.0°F4.4°C 33.4°F0.8°C 77% 8.0 mph NW12.9 kmh NW 15.0 mph24.1 kmh 30.24 in1024.0 mb 0.00 in0.0 mm 0.00 in0.0 mm 0.00 in0.0 mm
02:40 AM 40.0°F4.4°C 33.4°F0.8°C 77% 19.0 mph NW30.6 kmh NW 19.0 mph30.6 kmh 30.24 in1024.0 mb 0.00 in0.0 mm 0.00 in0.0 mm 0.00 in0.0 mm
02:35 AM 40.1°F4.5°C 33.5°F0.8°C 77% 5.0 mph WSW8.0 kmh WSW 12.0 mph19.3 kmh 30.25 in1024.4 mb 0.00 in0.0 mm 0.00 in0.0 mm 0.00 in0.0 mm
02:30 AM 40.2°F4.6°C 33.3°F0.7°C 76% 5.0 mph NNW8.0 kmh NNW 14.0 mph22.5 kmh 30.24 in1024.0 mb 0.00 in0.0 mm 0.00 in0.0 mm 0.00 in0.0 mm
02:25 AM 40.3°F4.6°C 33.0°F0.6°C 75% 11.0 mph NW17.7 kmh NW 18.0 mph29.0 kmh 30.24 in1024.0 mb 0.00 in0.0 mm 0.00 in0.0 mm 0.00 in0.0 mm
02:20 AM 40.5°F4.7°C 32.9°F0.5°C 74% 11.0 mph WNW17.7 kmh WNW 12.0 mph19.3 kmh 30.24 in1024.0 mb 0.00 in0.0 mm 0.00 in0.0 mm 0.00 in0.0 mm
02:15 AM 40.5°F4.7°C 32.9°F0.5°C 74% 8.0 mph NW12.9 kmh NW 18.0 mph29.0 kmh 30.24 in1024.0 mb 0.00 in0.0 mm 0.00 in0.0 mm 0.00 in0.0 mm
02:10 AM 40.6°F4.8°C 32.6°F0.3°C 73% 21.0 mph NNW33.8 kmh NNW 21.0 mph33.8 kmh 30.23 in1023.7 mb 0.00 in0.0 mm 0.00 in0.0 mm 0.00 in0.0 mm
02:05 AM 40.6°F4.8°C 32.6°F0.3°C 73% 4.0 mph NW6.4 kmh NW 17.0 mph27.4 kmh 30.24 in1024.0 mb 0.00 in0.0 mm 0.00 in0.0 mm 0.00 in0.0 mm
02:00 AM 40.5°F4.7°C 32.5°F0.3°C 73% 6.0 mph W9.7 kmh W 13.0 mph20.9 kmh 30.24 in1024.0 mb 0.00 in0.0 mm 0.00 in0.0 mm 0.00 in0.0 mm
01:55 AM 40.5°F4.7°C 32.2°F0.1°C 72% 11.0 mph NW17.7 kmh NW 12.0 mph19.3 kmh 30.24 in1024.0 mb 0.00 in0.0 mm 0.00 in0.0 mm 0.00 in0.0 mm
01:50 AM 40.4°F4.7°C 32.1°F0.1°C 72% 5.0 mph WNW8.0 kmh WNW 11.0 mph17.7 kmh 30.24 in1024.0 mb 0.00 in0.0 mm 0.00 in0.0 mm 0.00 in0.0 mm
01:45 AM 40.3°F4.6°C 32.0°F0.0°C 72% 5.0 mph N8.0 kmh N 9.0 mph14.5 kmh 30.24 in1024.0 mb 0.00 in0.0 mm 0.00 in0.0 mm 0.00 in0.0 mm
01:40 AM 40.3°F4.6°C 31.7°F-0.2°C 71% 8.0 mph WNW12.9 kmh WNW 14.0 mph22.5 kmh 30.24 in1024.0 mb 0.00 in0.0 mm 0.00 in0.0 mm 0.00 in0.0 mm
01:35 AM 40.2°F4.6°C 31.6°F-0.2°C 71% 7.0 mph NW11.3 kmh NW 7.0 mph11.3 kmh 30.24 in1024.0 mb 0.00 in0.0 mm 0.00 in0.0 mm 0.00 in0.0 mm
01:30 AM 40.1°F4.5°C 31.5°F-0.3°C 71% 7.0 mph NW11.3 kmh NW 11.0 mph17.7 kmh 30.24 in1024.0 mb 0.00 in0.0 mm 0.00 in0.0 mm 0.00 in0.0 mm
01:25 AM 40.2°F4.6°C 31.6°F-0.2°C 71% 6.0 mph NW9.7 kmh NW 13.0 mph20.9 kmh 30.24 in1024.0 mb 0.00 in0.0 mm 0.00 in0.0 mm 0.00 in0.0 mm
01:20 AM 40.3°F4.6°C 31.7°F-0.2°C 71% 5.0 mph WNW8.0 kmh WNW 9.0 mph14.5 kmh 30.24 in1024.0 mb 0.00 in0.0 mm 0.00 in0.0 mm 0.00 in0.0 mm
01:15 AM 40.3°F4.6°C 31.3°F-0.4°C 70% 6.0 mph WNW9.7 kmh WNW 12.0 mph19.3 kmh 30.24 in1024.0 mb 0.00 in0.0 mm 0.00 in0.0 mm 0.00 in0.0 mm
01:10 AM 40.3°F4.6°C 31.3°F-0.4°C 70% 6.0 mph NW9.7 kmh NW 11.0 mph17.7 kmh 30.24 in1024.0 mb 0.00 in0.0 mm 0.00 in0.0 mm 0.00 in0.0 mm
01:05 AM 40.1°F4.5°C 31.1°F-0.5°C 70% 9.0 mph NW14.5 kmh NW 13.0 mph20.9 kmh 30.24 in1024.0 mb 0.00 in0.0 mm 0.00 in0.0 mm 0.00 in0.0 mm
01:00 AM 39.9°F4.4°C 30.9°F-0.6°C 70% 9.0 mph NW14.5 kmh NW 17.0 mph27.4 kmh 30.24 in1024.0 mb 0.00 in0.0 mm 0.00 in0.0 mm 0.00 in0.0 mm
12:55 AM 39.9°F4.4°C 30.9°F-0.6°C 70% 6.0 mph WNW9.7 kmh WNW 9.0 mph14.5 kmh 30.24 in1024.0 mb 0.00 in0.0 mm 0.00 in0.0 mm 0.00 in0.0 mm
12:50 AM 40.0°F4.4°C 30.7°F-0.7°C 69% 5.0 mph NW8.0 kmh NW 19.0 mph30.6 kmh 30.24 in1024.0 mb 0.00 in0.0 mm 0.00 in0.0 mm 0.00 in0.0 mm
12:45 AM 40.1°F4.5°C 30.8°F-0.7°C 69% 6.0 mph WNW9.7 kmh WNW 14.0 mph22.5 kmh 30.24 in1024.0 mb 0.00 in0.0 mm 0.00 in0.0 mm 0.00 in0.0 mm
12:40 AM 40.3°F4.6°C 30.6°F-0.8°C 68% 5.0 mph NW8.0 kmh NW 11.0 mph17.7 kmh 30.24 in1024.0 mb 0.00 in0.0 mm 0.00 in0.0 mm 0.00 in0.0 mm
12:35 AM 40.5°F4.7°C 30.8°F-0.7°C 68% 6.0 mph NW9.7 kmh NW 8.0 mph12.9 kmh 30.24 in1024.0 mb 0.00 in0.0 mm 0.00 in0.0 mm 0.00 in0.0 mm
12:30 AM 40.8°F4.9°C 30.7°F-0.7°C 67% 7.0 mph NW11.3 kmh NW 10.0 mph16.1 kmh 30.24 in1024.0 mb 0.00 in0.0 mm 0.00 in0.0 mm 0.00 in0.0 mm
12:25 AM 41.0°F5.0°C 30.9°F-0.6°C 67% 9.0 mph NW14.5 kmh NW 13.0 mph20.9 kmh 30.24 in1024.0 mb 0.00 in0.0 mm 0.00 in0.0 mm 0.00 in0.0 mm
12:20 AM 41.4°F5.2°C 30.9°F-0.6°C 66% 11.0 mph NNW17.7 kmh NNW 15.0 mph24.1 kmh 30.24 in1024.0 mb 0.00 in0.0 mm 0.00 in0.0 mm 0.00 in0.0 mm
12:15 AM 41.6°F5.3°C 30.7°F-0.7°C 65% 11.0 mph NW17.7 kmh NW 15.0 mph24.1 kmh 30.23 in1023.7 mb 0.00 in0.0 mm 0.00 in0.0 mm 0.00 in0.0 mm
12:10 AM 41.7°F5.4°C 30.4°F-0.9°C 64% 16.0 mph W25.7 kmh W 16.0 mph25.7 kmh 30.23 in1023.7 mb 0.00 in0.0 mm 0.00 in0.0 mm 0.00 in0.0 mm
12:05 AM 41.9°F5.5°C 30.2°F-1.0°C 63% 9.0 mph NW14.5 kmh NW 14.0 mph22.5 kmh 30.23 in1023.7 mb 0.00 in0.0 mm 0.00 in0.0 mm 0.00 in0.0 mm
12:00 AM 42.1°F5.6°C 30.4°F-0.9°C 63% 12.0 mph WNW19.3 kmh WNW 16.0 mph25.7 kmh 30.23 in1023.7 mb 0.00 in0.0 mm 0.00 in0.0 mm 0.00 in0.0 mm